Time;durP1;ratioP1;P1;durP2;ratioP2;P2;SDS_P1;SDS_P2;PMS_P1;PMS_P2;Temp;Humidity;BMP_temperature;BMP_pressure;BME280_temperature;BME280_humidity;BME280_pressure;Samples;Min_cycle;Max_cycle;Signal;HPM_P1;HPM_P2
2023/12/20 00:02:25;;;;;;;7.30;4.68;;;;;;;9.70;100.00;101680.75;5049235;28;20551;-66
2023/12/20 00:04:52;;;;;;;6.93;4.13;;;;;;;9.68;100.00;101675.53;5049926;28;20655;-60
2023/12/20 00:07:20;;;;;;;7.97;4.85;;;;;;;9.46;100.00;101688.03;5033354;28;20059;-60
2023/12/20 00:09:47;;;;;;;11.10;4.50;;;;;;;9.42;100.00;101692.44;5050784;28;20064;-59
2023/12/20 00:12:14;;;;;;;10.32;3.50;;;;;;;9.24;100.00;101715.09;5033775;28;20057;-61
2023/12/20 00:14:42;;;;;;;7.70;3.08;;;;;;;9.15;100.00;101709.34;5032800;28;20597;-60
2023/12/20 00:17:09;;;;;;;6.63;2.70;;;;;;;9.17;100.00;101717.31;5035105;28;20045;-61
2023/12/20 00:19:36;;;;;;;8.75;2.22;;;;;;;8.96;100.00;101722.03;5039388;28;20052;-59
2023/12/20 00:22:04;;;;;;;11.00;2.15;;;;;;;8.99;100.00;101722.31;5055033;28;20061;-59
2023/12/20 00:24:31;;;;;;;11.93;1.88;;;;;;;8.98;100.00;101726.16;5036476;28;20049;-61
2023/12/20 00:26:59;;;;;;;9.52;2.30;;;;;;;8.91;100.00;101711.03;5055453;28;20056;-59
2023/12/20 00:29:26;;;;;;;10.35;2.65;;;;;;;9.13;100.00;101717.84;5055305;28;20049;-60
2023/12/20 00:31:53;;;;;;;10.18;1.83;;;;;;;9.05;99.86;101717.59;5054021;28;20044;-60
2023/12/20 00:34:21;;;;;;;8.35;2.10;;;;;;;8.96;100.00;101728.34;5035217;28;20424;-60
2023/12/20 00:36:48;;;;;;;8.20;2.08;;;;;;;8.90;100.00;101734.97;5041641;28;20053;-60
2023/12/20 00:39:15;;;;;;;9.43;1.85;;;;;;;8.88;100.00;101742.66;5054844;28;20045;-59
2023/12/20 00:41:43;;;;;;;9.43;2.13;;;;;;;8.86;100.00;101722.88;5054118;28;20060;-61
2023/12/20 00:44:10;;;;;;;7.82;1.90;;;;;;;8.70;99.20;101737.72;5036535;28;20063;-59
2023/12/20 00:46:37;;;;;;;12.18;2.33;;;;;;;8.67;100.00;101730.03;5035422;28;20056;-58
2023/12/20 00:49:04;;;;;;;9.90;1.85;;;;;;;8.77;100.00;101735.53;5025407;28;20058;-59
2023/12/20 00:51:32;;;;;;;10.07;1.92;;;;;;;8.79;99.04;101738.81;5034387;28;20053;-58
2023/12/20 00:53:59;;;;;;;10.98;2.53;;;;;;;8.80;98.76;101732.22;5033427;28;20048;-60
2023/12/20 00:56:26;;;;;;;14.15;2.13;;;;;;;8.65;95.52;101736.91;5016332;28;20053;-60
2023/12/20 00:58:54;;;;;;;8.90;2.00;;;;;;;8.73;94.93;101739.09;5050519;28;20049;-60
2023/12/20 01:01:21;;;;;;;12.63;2.38;;;;;;;8.71;95.17;101742.13;5052912;28;20057;-61
2023/12/20 01:03:51;;;;;;;11.20;1.52;;;;;;;8.64;94.38;101733.34;5053949;28;20049;-61
2023/12/20 01:06:18;;;;;;;11.18;2.00;;;;;;;8.64;93.83;101738.00;5054166;28;20049;-61
2023/12/20 01:08:46;;;;;;;11.75;2.03;;;;;;;8.63;93.23;101745.41;5030929;28;20661;-60
2023/12/20 01:11:14;;;;;;;11.02;1.42;;;;;;;8.50;94.37;101735.00;5054775;28;20057;-61
2023/12/20 01:13:42;;;;;;;11.07;1.30;;;;;;;8.45;92.68;101737.75;5052794;28;20045;-60
2023/12/20 01:16:11;;;;;;;10.63;2.13;;;;;;;8.55;92.98;101747.91;5053946;28;20064;-61
2023/12/20 01:18:38;;;;;;;9.20;1.60;;;;;;;8.51;92.54;101749.53;5054070;28;20049;-61
2023/12/20 01:21:06;;;;;;;6.43;1.45;;;;;;;8.51;92.16;101755.84;5054039;28;20523;-62
2023/12/20 01:23:33;;;;;;;12.05;1.45;;;;;;;8.26;91.62;101763.25;5048132;28;20057;-60
2023/12/20 01:26:00;;;;;;;12.63;1.92;;;;;;;8.51;92.77;101761.34;5016121;28;20045;-61
2023/12/20 01:28:27;;;;;;;10.25;1.95;;;;;;;8.15;91.89;101767.88;5034139;28;20056;-62
2023/12/20 01:30:55;;;;;;;10.82;1.80;;;;;;;8.13;92.40;101755.50;5015306;28;20060;-61
2023/12/20 01:33:22;;;;;;;7.78;1.50;;;;;;;8.39;92.00;101757.22;5034248;28;20552;-61
2023/12/20 01:35:49;;;;;;;11.48;2.25;;;;;;;8.37;91.87;101757.50;5034001;28;20504;-60
2023/12/20 01:38:18;;;;;;;8.40;1.50;;;;;;;8.39;92.18;101752.56;5033562;28;20712;-59
2023/12/20 01:40:45;;;;;;;9.32;1.63;;;;;;;8.26;93.16;101750.38;5039584;28;20056;-58
2023/12/20 01:43:13;;;;;;;6.90;1.33;;;;;;;8.40;92.78;101758.88;5014213;28;20149;-61
2023/12/20 01:45:41;;;;;;;7.93;1.70;;;;;;;8.27;92.72;101768.47;5020657;28;20499;-61
2023/12/20 01:48:08;;;;;;;12.52;2.03;;;;;;;8.07;93.94;101762.09;5045656;28;20041;-62
2023/12/20 01:50:37;;;;;;;16.55;2.63;;;;;;;8.28;94.15;101763.81;5052213;28;20590;-61
2023/12/20 01:53:06;;;;;;;14.57;2.28;;;;;;;8.28;93.41;101761.88;5053900;28;20076;-58
2023/12/20 01:55:35;;;;;;;15.63;2.30;;;;;;;8.37;92.74;101773.16;5052144;28;20057;-61
2023/12/20 01:58:02;;;;;;;13.95;2.90;;;;;;;8.35;92.28;101775.34;5042705;28;20704;-60
2023/12/20 02:00:30;;;;;;;7.50;1.65;;;;;;;8.38;93.39;101780.28;5050356;28;20048;-59
2023/12/20 02:03:00;;;;;;;11.50;1.83;;;;;;;8.29;93.65;101763.53;5035749;28;20055;-62
2023/12/20 02:05:30;;;;;;;10.73;1.88;;;;;;;8.33;93.81;101772.88;5018133;28;20052;-58
2023/12/20 02:07:57;;;;;;;11.98;1.88;;;;;;;8.47;93.59;101789.63;5046844;28;20048;-59
2023/12/20 02:10:25;;;;;;;10.82;2.13;;;;;;;8.41;92.49;101796.22;5033050;28;20412;-60
2023/12/20 02:12:52;;;;;;;8.88;1.90;;;;;;;8.73;92.57;101797.63;5036611;28;20433;-58
2023/12/20 02:15:19;;;;;;;13.93;1.95;;;;;;;8.61;90.95;101797.03;5051437;28;20063;-60
2023/12/20 02:17:48;;;;;;;14.57;2.53;;;;;;;8.64;91.09;101792.94;5034562;28;20052;-61
2023/12/20 02:20:16;;;;;;;12.15;2.00;;;;;;;8.73;90.33;101805.03;5035169;28;20048;-58
2023/12/20 02:22:43;;;;;;;20.85;2.65;;;;;;;8.45;90.88;101813.78;5052385;28;20053;-65
2023/12/20 02:25:10;;;;;;;10.18;1.88;;;;;;;8.58;90.09;101802.25;5034060;28;20060;-61
2023/12/20 02:27:38;;;;;;;15.18;2.30;;;;;;;8.41;90.38;101809.94;5032564;28;20056;-60
2023/12/20 02:30:06;;;;;;;9.95;1.98;;;;;;;8.37;89.93;101806.91;5014872;28;20527;-62
2023/12/20 02:32:33;;;;;;;9.65;1.65;;;;;;;8.67;89.76;101804.19;5036903;28;20057;-61
2023/12/20 02:35:01;;;;;;;9.77;1.50;;;;;;;8.38;89.71;101796.75;5032411;28;20050;-61
2023/12/20 02:37:28;;;;;;;13.75;1.90;;;;;;;8.50;89.78;101802.81;5023311;28;20057;-60
2023/12/20 02:39:55;;;;;;;11.55;1.80;;;;;;;8.47;90.16;101801.44;5034731;28;20063;-61
2023/12/20 02:42:23;;;;;;;11.80;1.67;;;;;;;8.57;89.04;101811.59;5034202;28;20049;-61
2023/12/20 02:44:50;;;;;;;13.98;1.92;;;;;;;8.46;89.55;101820.91;5052298;28;20056;-59
2023/12/20 02:47:17;;;;;;;15.38;1.80;;;;;;;8.46;89.61;101827.25;5045641;28;20068;-59
2023/12/20 02:49:45;;;;;;;11.88;2.08;;;;;;;8.27;90.67;101814.31;5032095;28;20054;-59
2023/12/20 02:52:12;;;;;;;13.23;2.20;;;;;;;8.43;90.79;101819.56;5032293;28;20049;-59
2023/12/20 02:54:39;;;;;;;9.98;1.63;;;;;;;8.31;90.36;101812.66;5032036;28;20056;-61
2023/12/20 02:57:07;;;;;;;9.70;1.55;;;;;;;8.35;90.96;101808.28;5034348;28;20064;-60
2023/12/20 02:59:34;;;;;;;14.55;2.63;;;;;;;8.56;90.61;101809.97;5048811;28;20409;-58
2023/12/20 03:02:01;;;;;;;11.15;2.17;;;;;;;8.76;89.50;101808.06;5052064;28;20057;-60
2023/12/20 03:04:28;;;;;;;10.48;2.30;;;;;;;8.73;87.89;101805.03;5051117;28;20049;-60
2023/12/20 03:06:56;;;;;;;9.45;1.95;;;;;;;8.76;87.77;101808.06;5051716;28;20061;-60
2023/12/20 03:09:23;;;;;;;9.85;2.05;;;;;;;8.77;87.75;101811.63;5034334;28;20045;-59
2023/12/20 03:11:51;;;;;;;13.43;2.33;;;;;;;8.83;87.57;101818.75;5030769;28;20060;-59
2023/12/20 03:14:18;;;;;;;8.32;1.70;;;;;;;8.92;86.74;101826.19;5031313;28;20064;-61
2023/12/20 03:16:51;;;;;;;10.10;1.92;;;;;;;8.85;87.10;101822.91;5013485;28;20052;-61
2023/12/20 03:19:19;;;;;;;13.15;1.90;;;;;;;8.55;87.46;101808.31;5031532;28;20053;-60
2023/12/20 03:21:46;;;;;;;14.88;2.53;;;;;;;8.68;87.78;101808.59;5031617;28;20112;-60
2023/12/20 03:24:14;;;;;;;8.77;1.60;;;;;;;8.66;87.64;101813.56;5025017;28;20053;-60
2023/12/20 03:26:41;;;;;;;16.80;2.08;;;;;;;8.52;87.89;101823.44;5051436;28;20048;-59
2023/12/20 03:29:08;;;;;;;11.40;2.28;;;;;;;8.67;88.51;101815.19;5050516;28;20053;-60
2023/12/20 03:31:35;;;;;;;12.98;1.92;;;;;;;8.65;87.96;101817.38;5045276;28;20400;-60
2023/12/20 03:34:03;;;;;;;12.68;2.40;;;;;;;8.65;88.74;101816.53;5051580;28;20060;-62
2023/12/20 03:36:30;;;;;;;14.15;2.40;;;;;;;8.62;88.09;101812.44;5051348;28;20049;-60
2023/12/20 03:38:57;;;;;;;14.52;2.10;;;;;;;8.51;89.10;101813.53;5051485;28;20056;-60
2023/12/20 03:41:25;;;;;;;10.18;2.15;;;;;;;8.49;89.16;101810.22;5051670;28;20037;-62
2023/12/20 03:43:52;;;;;;;12.20;2.17;;;;;;;8.71;88.62;101813.53;5050523;28;20056;-60
2023/12/20 03:46:19;;;;;;;11.25;2.10;;;;;;;8.81;87.27;101812.72;5052432;28;20071;-59
2023/12/20 03:48:47;;;;;;;14.77;2.33;;;;;;;8.63;87.78;101816.81;5043685;28;20056;-61
2023/12/20 03:51:14;;;;;;;17.70;1.80;;;;;;;8.44;88.68;101817.66;5037387;28;20454;-60
2023/12/20 03:53:41;;;;;;;10.75;1.90;;;;;;;8.52;89.23;101823.44;5037709;28;20448;-59
2023/12/20 03:56:08;;;;;;;13.32;2.45;;;;;;;8.57;88.74;101811.59;5056109;28;20067;-60
2023/12/20 03:58:36;;;;;;;11.45;2.05;;;;;;;8.61;89.07;101813.53;5021807;28;20057;-58
2023/12/20 04:01:03;;;;;;;13.85;2.28;;;;;;;8.51;89.15;101827.25;5034569;28;20052;-60
2023/12/20 04:03:30;;;;;;;11.70;2.55;;;;;;;8.42;89.55;101828.88;5035277;28;20084;-60
2023/12/20 04:05:57;;;;;;;15.55;1.92;;;;;;;8.41;90.28;101829.16;5035140;28;20053;-59
2023/12/20 04:08:25;;;;;;;9.50;1.70;;;;;;;8.47;89.63;101836.31;5026465;28;20077;-59
2023/12/20 04:10:53;;;;;;;13.23;2.67;;;;;;;8.06;91.64;101827.13;5055021;28;20048;-60
2023/12/20 04:13:20;;;;;;;9.75;2.00;;;;;;;8.17;91.69;101811.50;5055198;28;20055;-63
2023/12/20 04:15:49;;;;;;;15.10;2.08;;;;;;;8.29;92.26;101823.94;5054840;28;20051;-60
2023/12/20 04:18:17;;;;;;;15.52;2.63;;;;;;;8.18;91.47;101819.47;5054951;28;20060;-62
2023/12/20 04:20:45;;;;;;;12.35;2.67;;;;;;;8.07;92.14;101817.81;5053287;28;20508;-61
2023/12/20 04:23:12;;;;;;;13.05;2.50;;;;;;;7.99;92.32;101829.28;5052354;28;20049;-59
2023/12/20 04:25:39;;;;;;;16.05;2.25;;;;;;;7.86;93.21;101821.56;5035521;28;20057;-59
2023/12/20 04:28:06;;;;;;;14.00;2.00;;;;;;;7.85;93.27;101815.25;5035104;28;20056;-60
2023/12/20 04:30:35;;;;;;;9.48;2.13;;;;;;;8.22;92.05;101820.59;5049232;28;20408;-59
2023/12/20 04:33:02;;;;;;;20.88;2.47;;;;;;;7.94;92.58;101832.84;5054444;28;20049;-61
2023/12/20 04:35:29;;;;;;;10.15;1.80;;;;;;;7.81;93.53;101833.34;5054437;28;20053;-62
2023/12/20 04:37:56;;;;;;;10.98;1.90;;;;;;;7.90;93.31;101839.97;5054548;28;20053;-60
2023/12/20 04:40:24;;;;;;;12.80;2.10;;;;;;;7.86;93.47;101843.53;5054371;28;20480;-61
2023/12/20 04:42:51;;;;;;;13.05;2.00;;;;;;;7.90;93.43;101833.63;5054498;28;20053;-61
2023/12/20 04:45:19;;;;;;;9.93;3.05;;;;;;;7.96;93.25;101830.66;5054166;28;20053;-59
2023/12/20 04:47:46;;;;;;;22.58;2.80;;;;;;;8.15;92.48;101819.19;5054020;28;20436;-61
2023/12/20 04:50:15;;;;;;;16.10;2.10;;;;;;;8.15;91.08;101819.19;5036786;28;20075;-62
2023/12/20 04:52:42;;;;;;;12.82;2.28;;;;;;;7.97;91.45;101829.56;5054700;28;20680;-62
2023/12/20 04:55:09;;;;;;;13.95;2.28;;;;;;;7.77;92.87;101832.25;5035701;28;20060;-59
2023/12/20 04:57:39;;;;;;;12.80;2.05;;;;;;;7.83;92.72;101827.56;5039921;28;20049;-61
2023/12/20 05:00:08;;;;;;;14.30;2.20;;;;;;;7.91;92.68;101829.81;5033748;28;20057;-60
2023/12/20 05:02:36;;;;;;;12.18;2.05;;;;;;;7.99;92.06;101826.53;5034536;28;20503;-59
2023/12/20 05:05:03;;;;;;;14.65;1.98;;;;;;;7.93;91.78;101825.69;5016244;28;20049;-61
2023/12/20 05:07:31;;;;;;;12.52;2.83;;;;;;;7.83;92.18;101831.16;5036643;28;20045;-61
2023/12/20 05:09:59;;;;;;;15.23;3.03;;;;;;;8.07;92.08;101827.94;5054437;28;20056;-59
2023/12/20 05:12:26;;;;;;;12.07;2.08;;;;;;;8.18;91.00;101824.97;5053550;28;20404;-60
2023/12/20 05:14:53;;;;;;;16.13;2.47;;;;;;;7.79;92.05;101831.97;5053169;28;20562;-61
2023/12/20 05:17:20;;;;;;;14.30;2.15;;;;;;;7.80;92.86;101834.44;5035880;28;20060;-61
2023/12/20 05:19:48;;;;;;;17.50;3.00;;;;;;;7.79;93.20;101843.75;5052916;28;20060;-60
2023/12/20 05:22:15;;;;;;;14.35;2.90;;;;;;;7.74;92.95;101835.50;5053376;28;20045;-61
2023/12/20 05:24:42;;;;;;;17.02;2.90;;;;;;;7.65;93.83;101834.34;5054146;28;20049;-60
2023/12/20 05:27:11;;;;;;;14.38;2.40;;;;;;;7.76;93.58;101833.31;5053023;28;20052;-62
2023/12/20 05:29:38;;;;;;;10.80;2.58;;;;;;;7.59;93.66;101827.22;5052738;28;20053;-60
2023/12/20 05:32:05;;;;;;;19.17;2.78;;;;;;;7.57;94.31;101834.03;5017825;28;20049;-60
2023/12/20 05:34:33;;;;;;;17.27;2.65;;;;;;;7.69;93.81;101838.22;5048510;28;20053;-60
2023/12/20 05:37:01;;;;;;;16.33;2.58;;;;;;;7.75;93.52;101841.81;5045897;28;20049;-61
2023/12/20 05:39:30;;;;;;;20.67;3.03;;;;;;;7.87;92.87;101847.91;5052591;28;20051;-60
2023/12/20 05:41:58;;;;;;;17.27;2.53;;;;;;;7.77;92.82;101856.09;5052278;28;20060;-61
2023/12/20 05:44:25;;;;;;;15.25;3.30;;;;;;;7.95;92.79;101853.69;5016291;28;20053;-63
2023/12/20 05:46:52;;;;;;;17.30;2.83;;;;;;;7.83;92.22;101842.13;5049904;28;20049;-59
2023/12/20 05:49:20;;;;;;;19.23;2.65;;;;;;;7.75;92.34;101845.41;5029083;28;20064;-61
2023/12/20 05:51:47;;;;;;;19.60;3.15;;;;;;;7.98;92.03;101852.34;5049024;28;20053;-59
2023/12/20 05:54:14;;;;;;;22.10;2.65;;;;;;;7.88;91.73;101857.75;5051446;28;20049;-61
2023/12/20 05:56:42;;;;;;;12.32;2.58;;;;;;;7.93;91.72;101866.84;5052487;28;20056;-60
2023/12/20 05:59:09;;;;;;;14.35;2.15;;;;;;;7.69;92.26;101862.06;5033797;28;20045;-58
2023/12/20 06:01:36;;;;;;;12.15;1.85;;;;;;;7.89;92.69;101863.00;5051913;28;20408;-62
2023/12/20 06:04:04;;;;;;;14.35;2.25;;;;;;;7.89;92.08;101857.53;5053480;28;20064;-63
2023/12/20 06:06:31;;;;;;;13.55;2.50;;;;;;;8.07;91.49;101867.19;5052408;28;20045;-60
2023/12/20 06:08:59;;;;;;;24.65;3.28;;;;;;;8.24;89.84;101876.06;5052533;28;20057;-56
2023/12/20 06:11:26;;;;;;;14.25;1.83;;;;;;;7.92;90.28;101875.34;5052723;28;20060;-60
2023/12/20 06:13:54;;;;;;;19.33;3.55;;;;;;;8.02;91.26;101880.06;5053111;28;20044;-60
2023/12/20 06:16:21;;;;;;;18.55;2.72;;;;;;;7.97;90.83;101878.94;5052792;28;20060;-62
2023/12/20 06:18:48;;;;;;;20.83;2.50;;;;;;;7.96;91.08;101876.47;5033918;28;20503;-61
2023/12/20 06:21:16;;;;;;;16.48;2.28;;;;;;;7.97;90.49;101875.38;5051482;28;20045;-60
2023/12/20 06:23:43;;;;;;;16.13;2.55;;;;;;;7.79;91.21;101870.38;5052069;28;20064;-66
2023/12/20 06:26:10;;;;;;;15.45;2.72;;;;;;;7.93;91.47;101874.28;5033534;28;20451;-59
2023/12/20 06:28:38;;;;;;;17.40;2.35;;;;;;;7.91;91.14;101869.03;5033813;28;20714;-62
2023/12/20 06:31:08;;;;;;;20.02;2.55;;;;;;;7.58;92.59;101866.66;5050116;28;20565;-61
2023/12/20 06:33:36;;;;;;;13.35;2.42;;;;;;;7.80;92.65;101863.78;5032714;28;20057;-60
2023/12/20 06:36:15;;;;;;;18.40;2.60;;;;;;;7.86;91.61;101869.00;5035106;28;20045;-59
2023/12/20 06:38:42;;;;;;;15.63;3.03;;;;;;;7.80;91.77;101872.00;5052065;28;20061;-58
2023/12/20 06:41:13;;;;;;;19.02;3.15;;;;;;;7.73;92.03;101865.94;5051138;28;20049;-61
2023/12/20 06:43:41;;;;;;;18.88;2.22;;;;;;;7.56;93.44;101866.13;5050990;28;20057;-60
2023/12/20 06:46:16;;;;;;;16.23;2.88;;;;;;;7.66;92.92;101868.94;5030908;28;20079;-62
2023/12/20 06:48:44;;;;;;;16.42;3.20;;;;;;;7.79;93.31;101870.38;5052200;28;20045;-61
2023/12/20 06:51:16;;;;;;;14.05;2.50;;;;;;;7.87;92.79;101878.91;5052526;28;20041;-60
2023/12/20 06:53:43;;;;;;;15.52;2.90;;;;;;;7.71;92.30;101877.16;5034427;28;20067;-59
2023/12/20 06:56:12;;;;;;;14.32;2.78;;;;;;;7.90;92.66;101883.84;5035635;28;20068;-61
2023/12/20 06:58:44;;;;;;;14.57;2.55;;;;;;;7.55;93.12;101880.91;5048158;28;20048;-61
2023/12/20 07:01:12;;;;;;;14.73;2.75;;;;;;;7.58;94.22;101876.84;5051715;28;20052;-61
2023/12/20 07:03:41;;;;;;;10.75;2.35;;;;;;;7.61;94.29;101868.06;5034151;28;20045;-59
2023/12/20 07:06:10;;;;;;;15.65;3.17;;;;;;;7.53;94.51;101866.63;5052219;28;20577;-60
2023/12/20 07:08:37;;;;;;;15.60;2.28;;;;;;;7.62;94.91;101877.94;5044427;28;20064;-60
2023/12/20 07:11:04;;;;;;;14.10;2.53;;;;;;;7.85;93.99;101877.50;5051862;28;20072;-61
2023/12/20 07:13:31;;;;;;;14.88;3.10;;;;;;;7.77;93.03;101880.78;5051657;28;20045;-61
2023/12/20 07:15:59;;;;;;;15.27;2.58;;;;;;;7.68;93.61;101882.38;5033587;28;20495;-59
2023/12/20 07:18:26;;;;;;;15.77;2.70;;;;;;;7.98;93.23;101888.81;5050821;28;20611;-61
2023/12/20 07:20:54;;;;;;;21.00;3.10;;;;;;;7.78;92.80;101887.91;5051504;28;20059;-61
2023/12/20 07:23:21;;;;;;;15.38;3.25;;;;;;;7.87;92.43;101889.03;5033663;28;20048;-61
2023/12/20 07:25:49;;;;;;;13.63;2.75;;;;;;;7.95;92.37;101892.09;5051643;28;20049;-61
2023/12/20 07:28:16;;;;;;;16.20;3.22;;;;;;;7.90;92.23;101899.47;5051632;28;20408;-61
2023/12/20 07:30:43;;;;;;;18.70;2.97;;;;;;;7.71;93.02;101903.75;5051236;28;20523;-61
2023/12/20 07:33:12;;;;;;;21.13;3.17;;;;;;;8.00;92.78;101899.53;5015455;28;20754;-62
2023/12/20 07:35:40;;;;;;;18.40;3.22;;;;;;;7.84;92.79;101906.03;5032390;28;20041;-59
2023/12/20 07:38:07;;;;;;;20.05;3.20;;;;;;;7.71;93.29;101910.09;5030718;28;20048;-62
2023/12/20 07:40:34;;;;;;;23.20;3.70;;;;;;;7.60;93.97;101910.28;5030805;28;20057;-61
2023/12/20 07:43:02;;;;;;;15.80;3.10;;;;;;;7.57;94.53;101911.63;5031346;28;20053;-59
2023/12/20 07:45:30;;;;;;;14.80;3.17;;;;;;;7.88;94.22;101912.63;5020791;28;20056;-60
2023/12/20 07:47:58;;;;;;;19.60;3.90;;;;;;;7.83;93.07;101920.84;5044042;28;20546;-60
2023/12/20 07:50:26;;;;;;;19.95;3.10;;;;;;;7.59;94.15;101922.34;5051167;28;20064;-60
2023/12/20 07:52:54;;;;;;;17.85;3.15;;;;;;;7.59;94.71;101920.44;5051964;28;20049;-61
2023/12/20 07:55:21;;;;;;;18.20;4.28;;;;;;;7.59;95.03;101925.91;5029948;28;20069;-60
2023/12/20 07:57:48;;;;;;;14.60;3.90;;;;;;;7.49;95.50;101925.00;5046644;28;20052;-60
2023/12/20 08:00:16;;;;;;;13.70;2.97;;;;;;;7.52;95.87;101919.00;5051100;28;20045;-60
2023/12/20 08:02:44;;;;;;;18.15;3.40;;;;;;;7.63;95.44;101923.47;5051742;28;20071;-62
2023/12/20 08:05:11;;;;;;;20.30;3.75;;;;;;;7.65;94.76;101921.28;5052345;28;20052;-60
2023/12/20 08:07:38;;;;;;;20.15;3.55;;;;;;;7.70;94.55;101916.66;5050406;28;20763;-59
2023/12/20 08:10:06;;;;;;;17.25;3.30;;;;;;;7.91;94.17;101906.63;5050589;28;20064;-61
2023/12/20 08:12:34;;;;;;;15.07;3.33;;;;;;;7.82;93.61;101905.47;5050328;28;20553;-61
2023/12/20 08:15:02;;;;;;;16.30;3.22;;;;;;;7.87;93.10;101905.50;5032967;28;20079;-61
2023/12/20 08:17:29;;;;;;;19.63;3.42;;;;;;;7.73;93.81;101907.91;5051375;28;20792;-60
2023/12/20 08:19:56;;;;;;;17.92;3.95;;;;;;;7.67;94.46;101913.63;5050922;28;20056;-62
2023/12/20 08:22:24;;;;;;;22.27;4.45;;;;;;;7.77;94.79;101916.44;5032026;28;20049;-57
2023/12/20 08:24:51;;;;;;;21.65;4.18;;;;;;;7.78;94.71;101905.19;5034651;28;20049;-60
2023/12/20 08:27:19;;;;;;;17.45;3.78;;;;;;;7.97;93.72;101916.53;5050670;28;20045;-60
2023/12/20 08:29:46;;;;;;;15.68;3.45;;;;;;;8.05;92.81;101907.78;5050924;28;20057;-62
2023/12/20 08:32:13;;;;;;;18.15;3.55;;;;;;;7.91;93.47;101899.19;5039998;28;20041;-59
2023/12/20 08:34:40;;;;;;;18.75;3.97;;;;;;;7.89;93.44;101901.41;5030711;28;20061;-60
2023/12/20 08:37:08;;;;;;;17.88;3.95;;;;;;;7.94;93.41;101904.19;5044424;28;20059;-62
2023/12/20 08:39:35;;;;;;;17.70;3.53;;;;;;;7.83;93.70;101898.88;5044430;28;20049;-62
2023/12/20 08:42:03;;;;;;;22.92;4.13;;;;;;;7.92;94.05;101897.28;5047700;28;20060;-62
2023/12/20 08:44:30;;;;;;;19.55;3.85;;;;;;;8.18;94.07;101898.22;5042203;28;20052;-63
2023/12/20 08:46:58;;;;;;;19.25;3.83;;;;;;;8.11;92.92;101895.72;5043821;28;20049;-63
2023/12/20 08:49:25;;;;;;;21.80;4.20;;;;;;;8.80;95.47;101898.97;5051340;28;20407;-60
2023/12/20 08:51:53;;;;;;;19.65;3.83;;;;;;;9.97;86.68;101899.38;5048756;28;21389;-62
2023/12/20 08:54:20;;;;;;;17.25;3.22;;;;;;;10.44;82.66;101907.22;5044091;28;20057;-60
2023/12/20 08:56:47;;;;;;;21.15;2.80;;;;;;;10.45;78.56;101917.13;5037105;28;20049;-62
2023/12/20 08:59:15;;;;;;;16.23;3.05;;;;;;;10.77;77.96;101916.66;5031285;28;20052;-61
2023/12/20 09:01:42;;;;;;;15.18;2.75;;;;;;;10.77;77.04;101922.16;5052290;28;20072;-62
2023/12/20 09:04:09;;;;;;;16.02;3.83;;;;;;;11.12;74.75;101913.66;5052979;28;20049;-62
2023/12/20 09:06:37;;;;;;;19.67;3.35;;;;;;;10.95;74.97;101916.78;5053452;28;20049;-62
2023/12/20 09:09:08;;;;;;;14.30;3.55;;;;;;;10.84;74.00;101906.13;5052329;28;20049;-63
2023/12/20 09:11:50;;;;;;;20.25;3.30;;;;;;;9.56;79.09;101919.84;5040743;28;20049;-60
2023/12/20 09:19:29;;;;;;;17.90;4.05;;;;;;;8.89;85.17;101920.13;4976653;28;20057;-62
2023/12/20 09:21:57;;;;;;;19.65;3.92;;;;;;;9.21;84.15;101921.78;5046089;28;20539;-65
2023/12/20 09:24:25;;;;;;;19.40;3.65;;;;;;;9.34;84.38;101902.84;5035615;28;20064;-62
2023/12/20 09:26:52;;;;;;;20.67;4.70;;;;;;;9.30;84.58;101903.66;5051576;28;20045;-61
2023/12/20 09:29:19;;;;;;;24.40;4.60;;;;;;;9.06;85.38;101911.66;5038226;28;20068;-61
2023/12/20 09:31:46;;;;;;;19.13;4.25;;;;;;;9.05;85.96;101910.81;5054159;28;20679;-63
2023/12/20 09:34:15;;;;;;;21.92;5.18;;;;;;;8.94;86.97;101903.66;5052603;28;20045;-61
2023/12/20 09:36:46;;;;;;;23.02;3.75;;;;;;;9.27;86.87;101909.72;5032247;28;20052;-60
2023/12/20 09:39:14;;;;;;;29.58;8.65;;;;;;;9.13;86.30;101904.75;5036556;28;20041;-60
2023/12/20 09:41:48;;;;;;;14.50;3.13;;;;;;;9.17;85.71;101916.03;5055163;28;20470;-63
2023/12/20 09:44:18;;;;;;;21.67;3.90;;;;;;;9.37;85.66;101915.19;5038357;28;20045;-63
2023/12/20 09:46:46;;;;;;;16.40;3.85;;;;;;;9.20;85.75;101918.25;5045711;28;20071;-63
2023/12/20 09:49:13;;;;;;;23.25;3.53;;;;;;;9.05;86.70;101907.22;5034044;28;20049;-62
2023/12/20 09:51:41;;;;;;;19.00;3.80;;;;;;;9.21;86.65;101910.81;5054760;28;20053;-62
2023/12/20 09:54:09;;;;;;;20.42;3.78;;;;;;;9.21;86.25;101911.63;5021014;28;20153;-65
2023/12/20 09:56:37;;;;;;;21.00;3.92;;;;;;;9.12;86.70;101929.78;5048502;28;20574;-62
2023/12/20 09:59:04;;;;;;;16.25;3.55;;;;;;;9.08;86.83;101928.69;5050483;28;20411;-62
2023/12/20 10:01:32;;;;;;;14.10;3.30;;;;;;;9.17;86.92;101927.00;5052470;28;20053;-61
2023/12/20 10:04:00;;;;;;;20.08;3.70;;;;;;;9.32;86.95;101917.94;5019872;28;20076;-62
2023/12/20 10:06:27;;;;;;;16.40;3.72;;;;;;;9.53;85.86;101916.84;5042017;28;20053;-63
2023/12/20 10:09:16;;;;;;;17.52;3.63;;;;;;;9.33;86.03;101920.41;5053255;28;20144;-65
2023/12/20 10:11:43;;;;;;;17.13;3.97;;;;;;;9.13;87.41;101914.94;5046271;28;20041;-61
2023/12/20 10:14:10;;;;;;;20.83;3.80;;;;;;;9.19;87.56;101922.06;5048414;28;20045;-64
2023/12/20 10:16:38;;;;;;;13.02;3.15;;;;;;;9.24;86.81;101921.28;5045977;28;20052;-63
2023/12/20 10:19:05;;;;;;;14.82;3.45;;;;;;;9.08;88.45;101912.19;5043339;28;20041;-62
2023/12/20 10:21:32;;;;;;;25.73;3.95;;;;;;;9.25;87.76;101926.50;5053831;28;20052;-62
2023/12/20 10:24:00;;;;;;;21.45;4.22;;;;;;;9.13;88.14;101921.25;5057115;28;20051;-62
2023/12/20 10:26:29;;;;;;;19.45;3.80;;;;;;;9.23;88.04;101914.09;5062675;28;20063;-60
2023/12/20 10:29:00;;;;;;;18.85;3.78;;;;;;;9.35;87.81;101907.22;5056735;28;20053;-59
2023/12/20 10:31:29;;;;;;;19.73;3.92;;;;;;;9.46;87.28;101900.63;5041922;28;20053;-59
2023/12/20 10:34:01;;;;;;;21.63;3.40;;;;;;;9.59;86.65;101902.00;5036900;28;20068;-59
2023/12/20 10:36:31;;;;;;;29.60;4.72;;;;;;;9.46;86.70;101886.03;5057912;28;20060;-62
2023/12/20 10:38:59;;;;;;;19.33;3.42;;;;;;;9.34;86.87;101877.25;5056007;28;20049;-62
2023/12/20 10:41:30;;;;;;;24.05;4.50;;;;;;;9.48;87.10;101878.34;5065033;28;20067;-61
2023/12/20 10:44:02;;;;;;;25.88;4.25;;;;;;;9.34;87.28;101880.00;5048839;28;20045;-59
2023/12/20 10:46:29;;;;;;;16.00;3.33;;;;;;;9.48;87.28;101892.94;5047614;28;20060;-61
2023/12/20 10:48:57;;;;;;;22.58;4.15;;;;;;;9.76;85.74;101906.03;5056991;28;20055;-61
2023/12/20 10:51:29;;;;;;;23.20;3.63;;;;;;;9.63;85.83;101901.13;5041018;28;20056;-60
2023/12/20 10:53:57;;;;;;;19.15;3.58;;;;;;;9.66;86.35;101891.53;5060492;28;20060;-59
2023/12/20 10:56:25;;;;;;;19.83;4.15;;;;;;;9.72;85.82;101884.88;5063427;28;20044;-60
2023/12/20 10:58:52;;;;;;;18.45;3.53;;;;;;;9.81;85.36;101870.28;5047678;28;20037;-60
2023/12/20 11:01:20;;;;;;;22.70;6.75;;;;;;;9.64;85.36;101878.00;5017511;28;20049;-60
2023/12/20 11:03:52;;;;;;;19.92;6.03;;;;;;;9.64;86.39;101878.00;5027276;28;20689;-61
2023/12/20 11:06:26;;;;;;;22.08;6.10;;;;;;;9.65;86.38;101863.19;5055717;28;20075;-59
2023/12/20 11:09:09;;;;;;;21.50;6.65;;;;;;;9.65;86.13;101857.69;5029588;28;20057;-63
2023/12/20 11:11:51;;;;;;;19.70;5.28;;;;;;;9.70;85.83;101849.41;5019297;28;21074;-59
2023/12/20 11:14:23;;;;;;;22.75;5.50;;;;;;;9.58;86.35;101848.88;5055781;28;20049;-61
2023/12/20 11:17:06;;;;;;;20.75;4.78;;;;;;;9.86;85.35;101852.94;5034852;28;20045;-61
2023/12/20 11:20:03;;;;;;;24.40;7.68;;;;;;;9.86;84.70;101839.16;5044059;28;20049;-61
2023/12/20 11:22:32;;;;;;;25.83;6.55;;;;;;;9.99;84.63;101830.28;5053874;28;20052;-62
2023/12/20 11:25:08;;;;;;;21.85;5.53;;;;;;;10.14;82.88;101836.59;5033387;28;20045;-65
2023/12/20 11:28:21;;;;;;;20.45;5.00;;;;;;;10.04;83.35;101833.84;5049776;28;20056;-60
2023/12/20 11:30:56;;;;;;;26.60;5.82;;;;;;;10.12;82.33;101836.06;5040250;28;20559;-57
2023/12/20 11:33:26;;;;;;;24.60;7.13;;;;;;;10.01;83.17;101828.91;5049793;28;20520;-59
2023/12/20 11:35:57;;;;;;;31.00;10.25;;;;;;;10.01;84.21;101826.16;5044326;28;20048;-61